Time;durP1;ratioP1;P1;durP2;ratioP2;P2;SDS_P1;SDS_P2;PMS_P1;PMS_P2;Temp;Humidity;BMP_temperature;BMP_pressure;BME280_temperature;BME280_humidity;BME280_pressure;Samples;Min_cycle;Max_cycle;Signal;HPM_P1;HPM_P2
2021/03/28 00:01:52;;;;;;;24.65;13.63;;;1.80;99.90;;;;;;4871978;29;20101;-74
2021/03/28 00:04:20;;;;;;;31.83;14.52;;;1.70;99.90;;;;;;4902811;29;20484;-74
2021/03/28 00:06:59;;;;;;;23.40;13.45;;;1.70;99.90;;;;;;4857200;29;20053;-75
2021/03/28 00:09:38;;;;;;;26.95;14.95;;;1.60;99.90;;;;;;4840942;29;20080;-75
2021/03/28 00:12:26;;;;;;;34.00;12.95;;;1.50;99.90;;;;;;4856266;29;20052;-74
2021/03/28 00:15:02;;;;;;;22.92;12.43;;;1.50;99.90;;;;;;4880071;29;20079;-74
2021/03/28 00:17:37;;;;;;;20.23;10.73;;;1.50;99.90;;;;;;4904666;29;20048;-75
2021/03/28 00:20:24;;;;;;;21.05;11.50;;;1.60;99.90;;;;;;4898020;29;20041;-75
2021/03/28 00:23:11;;;;;;;21.50;10.23;;;1.70;99.90;;;;;;4873383;29;20056;-74
2021/03/28 00:25:57;;;;;;;20.55;11.63;;;1.80;99.90;;;;;;4899632;29;20064;-76
2021/03/28 00:28:43;;;;;;;16.70;11.25;;;1.70;99.90;;;;;;4875781;29;20151;-75
2021/03/28 00:31:25;;;;;;;30.20;11.68;;;1.70;99.90;;;;;;4887530;29;20151;-75
2021/03/28 00:34:32;;;;;;;22.15;9.55;;;1.70;99.90;;;;;;4871997;29;20105;-76
2021/03/28 00:37:22;;;;;;;22.20;10.25;;;1.70;99.90;;;;;;4906129;29;20148;-75
2021/03/28 00:39:57;;;;;;;22.20;10.80;;;1.70;99.90;;;;;;4873359;29;20051;-76
2021/03/28 00:42:41;;;;;;;14.07;10.40;;;1.70;99.90;;;;;;4877321;29;20044;-74
2021/03/28 00:45:28;;;;;;;19.65;10.90;;;1.70;99.90;;;;;;4870979;29;20044;-75
2021/03/28 00:48:11;;;;;;;23.27;10.02;;;1.60;99.90;;;;;;4892408;29;20055;-75
2021/03/28 00:50:56;;;;;;;16.65;10.05;;;1.80;99.90;;;;;;4903035;29;20060;-75
2021/03/28 00:53:44;;;;;;;18.97;9.33;;;1.80;99.90;;;;;;4856699;29;20061;-74
2021/03/28 00:56:19;;;;;;;21.80;9.68;;;1.90;99.90;;;;;;4871634;29;20796;-76
2021/03/28 00:58:49;;;;;;;14.30;8.85;;;1.90;99.90;;;;;;4891000;29;20143;-75
2021/03/28 01:01:52;;;;;;;17.42;8.65;;;2.00;99.90;;;;;;4887201;29;20108;-75
2021/03/28 01:04:33;;;;;;;16.70;9.02;;;2.00;99.90;;;;;;4881141;29;20063;-75
2021/03/28 01:07:27;;;;;;;18.85;9.60;;;2.10;99.90;;;;;;4894654;29;20049;-76
2021/03/28 01:10:13;;;;;;;14.52;7.97;;;2.00;99.90;;;;;;4888012;29;20121;-76
2021/03/28 01:12:52;;;;;;;;;;;2.10;99.90;;;;;;4858422;29;20053;-75
2021/03/28 01:15:56;;;;;;;14.18;8.30;;;2.20;99.90;;;;;;4905837;29;19924;-75
2021/03/28 01:18:40;;;;;;;15.85;8.98;;;2.20;99.90;;;;;;4906654;29;20057;-75
2021/03/28 01:21:20;;;;;;;18.27;8.40;;;2.20;99.90;;;;;;4889385;29;20048;-76
2021/03/28 01:24:13;;;;;;;13.07;8.23;;;2.00;99.90;;;;;;4874322;29;20501;-74
2021/03/28 01:27:09;;;;;;;20.25;9.18;;;1.90;99.90;;;;;;4858677;29;20040;-75
2021/03/28 01:29:49;;;;;;;12.88;8.50;;;1.90;99.90;;;;;;4873696;29;20072;-75
2021/03/28 01:32:33;;;;;;;13.10;8.43;;;2.00;99.90;;;;;;4885398;29;20072;-75
2021/03/28 01:35:20;;;;;;;13.18;8.60;;;2.00;99.90;;;;;;4857852;29;20478;-74
2021/03/28 01:38:18;;;;;;;13.77;9.00;;;2.10;99.90;;;;;;4871125;29;20045;-75
2021/03/28 01:40:50;;;;;;;14.77;9.07;;;2.10;99.90;;;;;;4871489;29;20044;-77
2021/03/28 01:43:22;;;;;;;16.92;9.07;;;2.30;99.90;;;;;;4870372;29;20113;-75
2021/03/28 01:45:52;;;;;;;13.48;8.68;;;2.20;99.90;;;;;;4863875;29;20052;-75
2021/03/28 01:48:54;;;;;;;16.42;8.98;;;2.30;99.90;;;;;;4876678;29;20459;-77
2021/03/28 01:51:49;;;;;;;18.17;10.45;;;2.30;99.90;;;;;;4885709;29;20045;-75
2021/03/28 01:54:23;;;;;;;25.92;9.00;;;2.30;99.90;;;;;;4852194;29;20145;-74
2021/03/28 01:57:27;;;;;;;20.98;9.50;;;2.40;99.90;;;;;;4855788;29;20063;-73
2021/03/28 02:00:29;;;;;;;12.48;8.55;;;2.50;99.90;;;;;;4874820;29;20463;-74
2021/03/28 02:03:18;;;;;;;21.58;9.85;;;2.50;99.90;;;;;;4819497;29;20084;-75
2021/03/28 02:06:07;;;;;;;14.55;9.80;;;2.50;99.90;;;;;;4870129;29;20717;-74
2021/03/28 02:08:58;;;;;;;17.65;9.38;;;2.60;99.90;;;;;;4888803;29;20108;-77
2021/03/28 02:11:27;;;;;;;17.35;10.38;;;2.60;99.90;;;;;;4888106;29;20053;-76
2021/03/28 02:14:06;;;;;;;17.80;9.35;;;2.60;99.90;;;;;;4889252;29;20143;-75
2021/03/28 02:16:42;;;;;;;13.77;9.45;;;2.50;99.90;;;;;;4886099;29;20087;-73
2021/03/28 02:19:19;;;;;;;19.38;8.73;;;2.40;99.90;;;;;;4867634;29;20052;-74
2021/03/28 02:21:49;;;;;;;18.33;9.30;;;2.40;99.90;;;;;;4876713;29;20524;-74
2021/03/28 02:24:25;;;;;;;21.75;9.77;;;2.50;99.90;;;;;;4854478;29;20100;-76
2021/03/28 02:27:35;;;;;;;15.93;8.07;;;2.50;99.90;;;;;;4882545;29;20044;-76
2021/03/28 02:30:08;;;;;;;18.90;9.10;;;2.60;99.90;;;;;;4842622;29;20579;-75
2021/03/28 02:32:41;;;;;;;13.05;8.88;;;2.70;99.90;;;;;;4880680;29;20057;-75
2021/03/28 02:35:30;;;;;;;19.15;7.95;;;2.70;99.90;;;;;;4900472;29;20097;-74
2021/03/28 02:38:15;;;;;;;14.18;9.50;;;2.70;99.90;;;;;;4884942;29;20053;-75
2021/03/28 02:40:45;;;;;;;15.13;9.25;;;2.90;99.90;;;;;;4886177;29;20059;-76
2021/03/28 02:43:44;;;;;;;13.48;7.88;;;3.10;99.90;;;;;;4877446;29;20091;-75
2021/03/28 02:46:22;;;;;;;15.25;8.95;;;3.10;99.90;;;;;;4877069;29;20072;-76
2021/03/28 02:49:23;;;;;;;20.55;10.80;;;3.20;99.90;;;;;;4880619;29;20072;-75
2021/03/28 02:51:50;;;;;;;14.13;9.60;;;3.30;99.90;;;;;;4900264;29;20065;-75
2021/03/28 02:54:41;;;;;;;17.70;10.48;;;3.30;99.90;;;;;;4891979;29;20048;-76
2021/03/28 02:57:35;;;;;;;17.30;9.88;;;3.40;99.90;;;;;;4892814;29;20423;-75
2021/03/28 03:00:10;;;;;;;12.77;10.27;;;3.40;99.90;;;;;;4890906;29;20131;-74
2021/03/28 03:02:57;;;;;;;15.75;10.00;;;3.30;99.90;;;;;;4870417;29;20052;-75
2021/03/28 03:05:41;;;;;;;11.52;10.32;;;3.20;99.90;;;;;;4885965;29;20496;-76
2021/03/28 03:08:50;;;;;;;14.82;11.40;;;3.30;99.90;;;;;;4842916;29;20065;-76
2021/03/28 03:11:27;;;;;;;24.35;11.15;;;3.30;99.90;;;;;;4873688;29;20124;-76
2021/03/28 03:14:03;;;;;;;15.10;10.95;;;3.30;99.90;;;;;;4889126;29;20053;-75
2021/03/28 03:16:58;;;;;;;18.70;12.18;;;3.20;99.90;;;;;;4873706;29;20100;-74
2021/03/28 03:19:47;;;;;;;21.40;11.50;;;3.20;99.90;;;;;;4883500;29;20067;-75
2021/03/28 03:22:43;;;;;;;18.95;11.63;;;3.20;99.90;;;;;;4872878;29;20052;-74
2021/03/28 03:25:25;;;;;;;27.15;12.32;;;3.20;99.90;;;;;;4874989;29;20060;-75
2021/03/28 03:27:54;;;;;;;16.02;9.70;;;3.20;99.90;;;;;;4907767;29;20071;-75
2021/03/28 03:30:51;;;;;;;19.23;10.77;;;3.30;99.90;;;;;;4872418;29;20063;-74
2021/03/28 03:33:55;;;;;;;16.30;10.32;;;3.50;99.90;;;;;;4883658;29;20088;-76
2021/03/28 03:36:33;;;;;;;20.10;9.52;;;3.60;99.90;;;;;;4901857;29;20526;-75
2021/03/28 03:39:21;;;;;;;19.73;9.93;;;3.60;99.90;;;;;;4905979;29;20104;-75
2021/03/28 03:41:58;;;;;;;17.25;10.05;;;3.70;99.90;;;;;;4887578;29;20044;-74
2021/03/28 03:44:36;;;;;;;24.30;11.45;;;3.70;99.90;;;;;;4885289;29;20049;-76
2021/03/28 03:47:23;;;;;;;21.45;11.57;;;3.80;99.90;;;;;;4891329;29;20693;-74
2021/03/28 03:50:01;;;;;;;16.95;10.48;;;3.80;99.90;;;;;;4883576;29;20044;-76
2021/03/28 03:52:50;;;;;;;16.92;11.15;;;3.80;99.90;;;;;;4880916;29;20468;-75
2021/03/28 03:55:29;;;;;;;24.05;10.73;;;3.80;99.90;;;;;;4899256;29;20052;-75
2021/03/28 03:58:07;;;;;;;13.95;9.63;;;3.90;99.90;;;;;;4866462;29;20140;-77
2021/03/28 04:00:50;;;;;;;19.67;11.00;;;3.90;99.90;;;;;;4885783;29;20049;-76
2021/03/28 04:03:33;;;;;;;14.75;9.07;;;3.90;99.90;;;;;;4858048;29;20052;-75
2021/03/28 04:06:06;;;;;;;15.68;8.73;;;4.00;99.90;;;;;;4860443;29;20472;-75
2021/03/28 04:08:57;;;;;;;19.05;10.38;;;4.10;99.90;;;;;;4885833;29;20069;-75
2021/03/28 04:11:39;;;;;;;21.25;10.00;;;4.10;99.90;;;;;;4889229;29;20045;-75
2021/03/28 04:14:19;;;;;;;14.23;9.38;;;4.10;99.90;;;;;;4875196;29;20052;-75
2021/03/28 04:16:51;;;;;;;17.33;10.02;;;4.20;99.90;;;;;;4889678;29;20443;-75
2021/03/28 04:19:31;;;;;;;16.85;9.63;;;4.20;99.90;;;;;;4855537;29;20542;-76
2021/03/28 04:22:26;;;;;;;15.38;9.85;;;4.20;99.90;;;;;;4868816;29;20064;-76
2021/03/28 04:25:33;;;;;;;24.33;12.07;;;4.10;99.90;;;;;;4887949;29;20053;-75
2021/03/28 04:28:33;;;;;;;21.83;11.00;;;4.20;99.90;;;;;;4900755;29;20060;-75
2021/03/28 04:31:37;;;;;;;21.27;11.68;;;4.10;99.90;;;;;;4882785;29;20049;-74
2021/03/28 04:34:12;;;;;;;20.80;10.50;;;4.00;99.90;;;;;;4896270;29;20049;-75
2021/03/28 04:36:41;;;;;;;25.23;11.57;;;4.00;99.90;;;;;;4873862;29;20065;-75
2021/03/28 04:39:26;;;;;;;16.35;11.48;;;4.00;99.90;;;;;;4890109;29;20053;-75
2021/03/28 04:42:22;;;;;;;20.48;11.07;;;4.00;99.90;;;;;;4889885;29;20147;-75
2021/03/28 04:45:33;;;;;;;17.33;10.40;;;4.00;99.90;;;;;;4867684;29;20054;-76
2021/03/28 04:48:42;;;;;;;13.27;8.55;;;4.00;99.90;;;;;;4815130;29;20044;-76
2021/03/28 04:51:20;;;;;;;16.42;9.20;;;4.00;99.90;;;;;;4867429;29;20041;-77
2021/03/28 04:54:21;;;;;;;15.57;8.43;;;4.20;99.90;;;;;;4889537;29;20059;-75
2021/03/28 04:56:53;;;;;;;16.08;9.18;;;4.40;99.90;;;;;;4902715;29;20780;-76
2021/03/28 04:59:39;;;;;;;21.80;8.77;;;4.50;99.90;;;;;;4875237;29;20063;-76
2021/03/28 05:02:26;;;;;;;13.38;8.45;;;4.70;99.90;;;;;;4878047;29;20044;-76
2021/03/28 05:05:13;;;;;;;16.92;9.75;;;4.80;99.90;;;;;;4878867;29;20064;-76
2021/03/28 05:07:57;;;;;;;15.77;9.10;;;4.90;99.90;;;;;;4862077;29;20049;-76
2021/03/28 05:11:00;;;;;;;9.98;8.98;;;4.90;99.90;;;;;;4890114;29;20085;-76
2021/03/28 05:13:59;;;;;;;11.98;8.98;;;4.90;99.90;;;;;;4859256;29;20055;-75
2021/03/28 05:16:52;;;;;;;16.92;9.27;;;4.90;99.90;;;;;;4890192;29;20208;-76
2021/03/28 05:19:53;;;;;;;12.00;8.88;;;5.00;99.90;;;;;;4885986;29;20060;-75
2021/03/28 05:22:42;;;;;;;15.57;9.25;;;5.00;99.90;;;;;;4874753;29;20064;-77
2021/03/28 05:25:26;;;;;;;12.13;9.00;;;5.00;99.90;;;;;;4890637;29;20060;-76
2021/03/28 05:28:24;;;;;;;25.38;9.40;;;5.00;99.90;;;;;;4883721;29;20052;-76
2021/03/28 05:31:18;;;;;;;17.17;9.10;;;5.00;99.90;;;;;;4822038;29;20041;-77
2021/03/28 05:33:54;;;;;;;14.10;9.10;;;5.00;99.90;;;;;;4889695;29;20049;-76
2021/03/28 05:36:38;;;;;;;14.85;9.40;;;5.00;99.90;;;;;;4890111;29;20041;-76
2021/03/28 05:39:51;;;;;;;14.43;9.33;;;5.00;99.90;;;;;;4901239;29;20056;-76
2021/03/28 05:42:29;;;;;;;10.77;9.75;;;5.00;99.90;;;;;;4855164;29;20236;-75
2021/03/28 05:45:08;;;;;;;13.77;9.52;;;5.10;99.90;;;;;;4882766;29;20053;-76
2021/03/28 05:48:32;;;;;;;18.77;10.05;;;5.10;99.90;;;;;;4869833;29;20090;-76
2021/03/28 05:51:20;;;;;;;11.80;9.27;;;5.20;99.90;;;;;;4856069;29;20049;-75
2021/03/28 05:54:21;;;;;;;21.02;9.60;;;5.20;99.90;;;;;;4930001;29;20032;-75
2021/03/28 05:57:22;;;;;;;10.77;9.63;;;5.20;99.90;;;;;;4910330;29;20029;-74
2021/03/28 06:00:15;;;;;;;14.10;8.50;;;5.20;99.90;;;;;;4895610;29;20096;-74
2021/03/28 06:03:12;;;;;;;9.30;8.07;;;5.20;99.90;;;;;;4891848;29;20048;-74
2021/03/28 06:06:10;;;;;;;13.07;9.27;;;5.30;99.90;;;;;;4910811;29;20062;-75
2021/03/28 06:08:49;;;;;;;9.35;8.45;;;5.30;99.90;;;;;;4929170;29;20044;-74
2021/03/28 06:11:28;;;;;;;17.65;9.68;;;5.40;99.90;;;;;;4913999;29;20120;-74
2021/03/28 06:14:38;;;;;;;13.77;10.50;;;5.40;99.90;;;;;;4894521;29;20049;-75
2021/03/28 06:17:25;;;;;;;11.52;8.57;;;5.40;99.90;;;;;;4906787;29;20028;-75
2021/03/28 06:20:11;;;;;;;10.00;8.57;;;5.50;99.90;;;;;;4876071;29;20119;-76
2021/03/28 06:23:16;;;;;;;9.85;8.07;;;5.50;99.90;;;;;;4893514;29;20070;-75
2021/03/28 06:26:17;;;;;;;14.70;8.70;;;5.60;99.90;;;;;;4892360;29;20057;-75
2021/03/28 06:29:05;;;;;;;13.10;7.95;;;5.60;99.90;;;;;;4926479;29;20033;-76
2021/03/28 06:31:57;;;;;;;13.10;8.50;;;5.60;99.90;;;;;;4894543;29;20040;-76
2021/03/28 06:34:48;;;;;;;16.70;9.52;;;5.70;99.90;;;;;;4896927;29;20040;-76
2021/03/28 06:38:04;;;;;;;17.15;8.52;;;5.80;99.90;;;;;;4883636;29;20053;-76
2021/03/28 06:40:46;;;;;;;14.00;9.23;;;5.80;99.90;;;;;;4881471;29;20085;-76
2021/03/28 06:43:38;;;;;;;9.65;8.55;;;5.90;99.90;;;;;;4899729;29;20252;-76
2021/03/28 06:46:39;;;;;;;11.75;8.10;;;5.90;99.90;;;;;;4902343;29;20056;-76
2021/03/28 06:49:24;;;;;;;11.70;8.15;;;6.00;99.90;;;;;;4850522;29;20053;-77
2021/03/28 06:51:50;;;;;;;;;;;6.10;99.90;;;;;;4866914;29;20052;-77
2021/03/28 06:54:51;;;;;;;10.02;8.55;;;6.10;99.90;;;;;;4859936;29;19932;-77
2021/03/28 06:57:35;;;;;;;10.93;9.68;;;6.10;99.90;;;;;;4884722;29;20044;-77
2021/03/28 07:00:12;;;;;;;9.02;8.20;;;6.30;99.90;;;;;;4877322;29;20056;-77
2021/03/28 07:03:03;;;;;;;13.43;7.72;;;6.30;99.90;;;;;;4863576;29;20064;-76
2021/03/28 07:05:36;;;;;;;10.13;8.90;;;6.40;99.90;;;;;;4879529;29;20473;-76
2021/03/28 07:08:24;;;;;;;13.68;9.10;;;6.50;99.90;;;;;;4850096;29;20504;-77
2021/03/28 07:11:33;;;;;;;12.40;9.48;;;6.70;99.90;;;;;;4876576;29;20545;-77
2021/03/28 07:14:24;;;;;;;15.00;10.02;;;6.80;99.90;;;;;;4868839;29;20053;-76
2021/03/28 07:17:28;;;;;;;13.20;8.88;;;6.80;99.90;;;;;;4860059;29;20464;-75
2021/03/28 07:20:17;;;;;;;22.27;9.25;;;6.90;99.90;;;;;;4869982;29;20087;-76
2021/03/28 07:22:51;;;;;;;11.77;10.20;;;7.00;99.90;;;;;;4877015;29;20666;-77
2021/03/28 07:25:24;;;;;;;14.65;10.27;;;7.00;99.90;;;;;;4878398;29;20061;-76
2021/03/28 07:28:25;;;;;;;13.65;9.43;;;7.00;99.90;;;;;;4858753;29;20058;-76
2021/03/28 07:31:33;;;;;;;11.95;8.38;;;7.00;99.90;;;;;;4866386;29;20052;-76
2021/03/28 07:34:21;;;;;;;13.13;9.13;;;6.90;99.90;;;;;;4875493;29;20131;-77
2021/03/28 07:37:18;;;;;;;11.80;9.68;;;6.90;99.90;;;;;;4891656;29;20054;-76
2021/03/28 07:40:22;;;;;;;11.45;9.90;;;6.90;99.90;;;;;;4894357;29;20075;-76
2021/03/28 07:43:23;;;;;;;9.88;9.07;;;6.90;99.90;;;;;;4893083;29;20132;-76
2021/03/28 07:46:18;;;;;;;10.70;9.82;;;7.00;99.90;;;;;;4894951;29;20048;-77
2021/03/28 07:48:56;;;;;;;9.43;8.30;;;7.00;99.90;;;;;;4910030;29;20067;-77
2021/03/28 07:51:41;;;;;;;14.30;10.48;;;7.10;99.90;;;;;;4884841;29;20051;-76
2021/03/28 07:54:53;;;;;;;9.45;8.52;;;7.10;99.90;;;;;;4878835;29;20057;-76
2021/03/28 07:57:39;;;;;;;9.75;8.75;;;7.20;99.90;;;;;;4887210;29;20053;-76
2021/03/28 08:00:23;;;;;;;10.40;9.60;;;7.30;99.90;;;;;;4889391;29;20053;-76
2021/03/28 08:03:28;;;;;;;15.50;9.93;;;7.40;99.90;;;;;;4872475;29;20440;-76
2021/03/28 08:06:06;;;;;;;11.43;10.25;;;7.50;99.90;;;;;;4909600;29;20067;-77
2021/03/28 08:09:05;;;;;;;11.88;10.77;;;7.50;99.90;;;;;;4884405;29;20064;-77
2021/03/28 08:11:44;;;;;;;12.40;11.23;;;7.60;99.90;;;;;;4875906;29;20053;-77
2021/03/28 08:14:38;;;;;;;13.63;11.00;;;7.70;99.90;;;;;;4847738;29;20056;-77
2021/03/28 08:17:30;;;;;;;14.13;12.60;;;7.70;99.90;;;;;;4873480;29;20135;-76
2021/03/28 08:20:06;;;;;;;15.65;11.35;;;7.80;99.90;;;;;;4886015;29;20049;-76
2021/03/28 08:23:11;;;;;;;13.48;11.05;;;7.80;99.90;;;;;;4891347;29;20519;-76
2021/03/28 08:25:40;;;;;;;16.05;11.73;;;7.90;99.90;;;;;;4903790;29;20512;-77
2021/03/28 08:28:36;;;;;;;12.63;11.32;;;7.90;99.90;;;;;;4885959;29;20053;-76
2021/03/28 08:31:20;;;;;;;13.55;12.23;;;8.00;99.90;;;;;;4853063;29;20059;-75
2021/03/28 08:34:08;;;;;;;12.00;11.00;;;8.10;99.90;;;;;;4877101;29;20260;-75
2021/03/28 08:37:12;;;;;;;17.45;12.40;;;8.20;99.90;;;;;;4892457;29;20091;-77
2021/03/28 08:39:44;;;;;;;13.40;11.98;;;8.30;99.90;;;;;;4890676;29;20081;-77
2021/03/28 08:42:25;;;;;;;12.43;11.27;;;8.30;99.90;;;;;;4909355;29;20052;-77
2021/03/28 08:45:21;;;;;;;12.13;11.00;;;8.30;99.90;;;;;;4879004;29;20053;-77
2021/03/28 08:48:00;;;;;;;13.15;11.52;;;8.20;99.90;;;;;;4890924;29;20055;-76
2021/03/28 08:50:51;;;;;;;13.35;11.02;;;8.30;99.90;;;;;;4856153;29;20075;-76
2021/03/28 08:53:36;;;;;;;12.43;9.68;;;8.30;99.90;;;;;;4905759;29;20058;-75
2021/03/28 08:56:34;;;;;;;12.02;10.65;;;8.20;99.90;;;;;;4907837;29;20052;-78
2021/03/28 08:59:19;;;;;;;13.00;11.07;;;8.20;99.90;;;;;;4893286;29;20056;-77
2021/03/28 09:01:49;;;;;;;;;;;8.30;99.90;;;;;;4860096;29;20045;-75
2021/03/28 09:04:37;;;;;;;12.32;11.35;;;8.40;99.90;;;;;;4899826;29;20425;-77
2021/03/28 09:07:25;;;;;;;14.73;11.50;;;8.40;99.90;;;;;;4862340;29;20045;-76
2021/03/28 09:10:07;;;;;;;13.98;12.48;;;8.50;99.90;;;;;;4886992;29;20064;-76
2021/03/28 09:13:09;;;;;;;15.70;14.25;;;8.50;99.90;;;;;;4877000;29;20059;-77
2021/03/28 09:16:08;;;;;;;12.60;11.35;;;8.50;99.90;;;;;;4888959;29;20726;-76
2021/03/28 09:18:40;;;;;;;11.52;9.77;;;8.60;99.90;;;;;;4888520;29;20113;-76
2021/03/28 09:21:48;;;;;;;11.38;10.35;;;8.60;99.90;;;;;;4887937;29;20614;-75
2021/03/28 09:24:36;;;;;;;11.35;10.23;;;8.70;99.90;;;;;;4873493;29;20049;-77
2021/03/28 09:27:15;;;;;;;11.40;10.43;;;8.70;99.90;;;;;;4856320;29;20611;-76
2021/03/28 09:30:17;;;;;;;11.07;10.05;;;8.80;99.90;;;;;;4860228;29;20558;-76
2021/03/28 09:33:05;;;;;;;11.48;10.38;;;8.90;99.90;;;;;;4891557;29;20044;-76
2021/03/28 09:35:59;;;;;;;11.20;10.32;;;8.90;99.90;;;;;;4872834;29;20041;-76
2021/03/28 09:39:00;;;;;;;14.57;9.40;;;8.90;99.90;;;;;;4888817;29;20048;-77
2021/03/28 09:41:38;;;;;;;17.08;10.27;;;9.00;99.90;;;;;;4875658;29;20052;-77
2021/03/28 09:44:36;;;;;;;13.43;10.55;;;9.10;99.90;;;;;;4891731;29;20606;-76
2021/03/28 09:47:35;;;;;;;12.27;10.18;;;9.10;99.90;;;;;;4865629;29;20053;-76
2021/03/28 09:50:37;;;;;;;12.10;10.95;;;9.10;99.90;;;;;;4855973;29;20053;-77
2021/03/28 09:53:22;;;;;;;12.00;10.50;;;9.20;99.90;;;;;;4893733;29;20057;-77
2021/03/28 09:56:12;;;;;;;10.70;9.60;;;9.30;99.90;;;;;;4889665;29;20075;-75
2021/03/28 09:58:58;;;;;;;13.57;12.07;;;9.40;99.90;;;;;;4891543;29;20060;-77
2021/03/28 10:02:22;;;;;;;11.18;10.07;;;9.50;99.90;;;;;;4874121;29;20056;-78
2021/03/28 10:05:12;;;;;;;12.68;9.63;;;9.50;99.90;;;;;;4807792;29;20407;-76
2021/03/28 10:07:50;;;;;;;12.38;11.20;;;9.60;99.90;;;;;;4796477;29;20055;-77
2021/03/28 10:10:46;;;;;;;15.82;10.90;;;9.60;99.90;;;;;;4873660;29;21653;-75
2021/03/28 10:13:19;;;;;;;;;;;9.70;99.90;;;;;;4885623;29;20523;-77
2021/03/28 10:16:02;;;;;;;13.30;11.45;;;9.80;99.90;;;;;;4873067;29;19924;-76
2021/03/28 10:19:07;;;;;;;13.10;11.68;;;9.90;99.90;;;;;;4890578;29;20057;-76
2021/03/28 10:22:01;;;;;;;12.50;11.40;;;10.20;99.90;;;;;;4881371;29;20056;-77
2021/03/28 10:24:40;;;;;;;12.57;11.63;;;10.40;99.90;;;;;;4906757;29;20060;-76
2021/03/28 10:27:33;;;;;;;13.35;11.95;;;10.50;99.90;;;;;;4873404;29;20053;-76
2021/03/28 10:30:53;;;;;;;11.27;10.35;;;10.60;99.90;;;;;;4891482;29;20069;-76
2021/03/28 10:33:49;;;;;;;11.73;10.73;;;10.50;99.90;;;;;;4855069;29;20068;-76
2021/03/28 10:36:43;;;;;;;11.82;10.80;;;10.50;99.90;;;;;;4878984;29;20072;-77
2021/03/28 10:39:22;;;;;;;11.75;10.65;;;10.50;99.90;;;;;;4888352;29;20053;-76
2021/03/28 10:41:53;;;;;;;11.85;10.52;;;10.60;99.90;;;;;;4872338;29;20057;-76
2021/03/28 10:44:26;;;;;;;13.85;12.23;;;10.50;99.90;;;;;;4872392;29;20068;-76
2021/03/28 10:47:11;;;;;;;11.32;10.15;;;10.60;99.90;;;;;;4891832;29;20056;-77
2021/03/28 10:50:16;;;;;;;11.60;10.65;;;10.60;99.90;;;;;;4892422;29;20100;-77
2021/03/28 10:52:57;;;;;;;11.73;10.75;;;10.70;99.90;;;;;;4886451;29;20510;-77
2021/03/28 10:55:36;;;;;;;12.18;11.10;;;10.80;99.90;;;;;;4891449;29;20385;-76
2021/03/28 10:58:09;;;;;;;12.77;11.13;;;11.10;99.90;;;;;;4907214;29;20063;-77
2021/03/28 11:01:01;;;;;;;13.18;11.82;;;11.30;99.90;;;;;;4869249;29;20478;-80
2021/03/28 11:03:56;;;;;;;11.23;10.30;;;11.60;99.90;;;;;;4877369;29;20131;-76
2021/03/28 11:07:14;;;;;;;11.75;10.80;;;11.70;99.90;;;;;;4867618;29;20056;-76
2021/03/28 11:09:53;;;;;;;14.55;11.07;;;11.50;99.90;;;;;;4893053;29;20420;-77
2021/03/28 11:12:38;;;;;;;11.57;10.88;;;11.30;99.90;;;;;;4881544;29;20153;-77
2021/03/28 11:15:20;;;;;;;;;;;11.10;99.90;;;;;;4888823;29;20116;-76
2021/03/28 11:17:49;;;;;;;13.50;12.27;;;11.00;99.90;;;;;;4889305;29;20048;-76
2021/03/28 11:20:22;;;;;;;11.32;10.32;;;11.50;99.90;;;;;;4884029;29;20052;-76
2021/03/28 11:23:23;;;;;;;13.13;11.75;;;11.70;99.90;;;;;;4886462;29;20052;-76
2021/03/28 11:26:10;;;;;;;12.30;11.05;;;11.40;99.90;;;;;;4890514;29;20427;-77
2021/03/28 11:28:54;;;;;;;12.20;11.05;;;11.30;99.90;;;;;;4860544;29;20061;-77
2021/03/28 11:31:27;;;;;;;12.20;11.20;;;11.40;99.90;;;;;;4861781;29;20071;-76
2021/03/28 11:34:15;;;;;;;12.70;11.60;;;11.50;99.90;;;;;;4893146;29;20056;-76
2021/03/28 11:37:02;;;;;;;12.15;10.98;;;11.70;99.90;;;;;;4875742;29;20061;-77
2021/03/28 11:39:32;;;;;;;12.32;11.43;;;11.70;99.90;;;;;;4853097;29;20041;-78
2021/03/28 11:42:21;;;;;;;11.30;10.50;;;11.90;99.90;;;;;;4879404;29;20059;-82
2021/03/28 11:45:00;;;;;;;16.38;11.95;;;11.80;99.90;;;;;;4875815;29;20428;-76
2021/03/28 11:47:33;;;;;;;12.32;11.27;;;11.70;99.90;;;;;;4889613;29;20045;-77
2021/03/28 11:50:15;;;;;;;13.30;11.52;;;11.60;99.90;;;;;;4840571;29;20614;-76
2021/03/28 11:52:54;;;;;;;10.98;10.18;;;11.60;99.90;;;;;;4823277;29;20083;-76
2021/03/28 11:55:39;;;;;;;11.63;10.82;;;11.50;99.90;;;;;;4870868;29;20041;-77
2021/03/28 11:58:32;;;;;;;15.82;11.10;;;11.50;99.90;;;;;;4841171;29;20409;-77
2021/03/28 12:00:59;;;;;;;11.80;10.80;;;11.60;99.90;;;;;;4884966;29;20072;-77
2021/03/28 12:03:33;;;;;;;12.57;11.40;;;11.70;99.90;;;;;;4835578;29;20263;-76
2021/03/28 12:06:03;;;;;;;11.73;10.02;;;11.90;99.90;;;;;;4884503;29;20131;-77
2021/03/28 12:08:56;;;;;;;12.10;10.90;;;12.10;99.90;;;;;;4886682;29;20052;-77
2021/03/28 12:11:34;;;;;;;11.32;10.00;;;12.00;99.90;;;;;;4898647;29;20057;-77
2021/03/28 12:14:27;;;;;;;10.82;9.75;;;12.20;99.90;;;;;;4911008;29;20048;-77
2021/03/28 12:17:06;;;;;;;11.02;10.07;;;12.30;99.90;;;;;;4893076;29;20079;-77
2021/03/28 12:19:58;;;;;;;10.55;9.60;;;12.20;99.90;;;;;;4885674;29;20120;-77
2021/03/28 12:22:37;;;;;;;11.07;10.18;;;12.20;99.90;;;;;;4867962;29;20131;-77
2021/03/28 12:25:22;;;;;;;13.13;9.45;;;12.20;99.90;;;;;;4906080;29;20048;-76
2021/03/28 12:27:56;;;;;;;10.73;9.65;;;12.30;99.90;;;;;;4889872;29;20053;-77
2021/03/28 12:30:28;;;;;;;11.50;9.90;;;12.40;99.90;;;;;;4885427;29;20053;-76
2021/03/28 12:33:09;;;;;;;11.05;9.80;;;12.30;99.90;;;;;;4882063;29;20057;-76
2021/03/28 12:36:05;;;;;;;15.13;10.18;;;12.10;99.90;;;;;;4887914;29;20434;-77
2021/03/28 12:38:46;;;;;;;10.90;9.85;;;12.10;99.90;;;;;;4896183;29;20040;-77
2021/03/28 12:41:13;;;;;;;9.40;8.65;;;12.20;99.90;;;;;;4875452;29;20459;-77
2021/03/28 12:43:41;;;;;;;12.27;10.00;;;12.10;99.90;;;;;;4883705;29;20488;-77
2021/03/28 12:47:00;;;;;;;12.27;9.10;;;12.10;99.90;;;;;;4876930;29;20165;-75
2021/03/28 12:49:48;;;;;;;9.65;8.93;;;11.90;99.90;;;;;;4864426;29;20088;-75
2021/03/28 12:52:19;;;;;;;11.00;9.95;;;11.90;99.90;;;;;;4878008;29;20296;-78
2021/03/28 12:54:54;;;;;;;10.07;9.43;;;12.00;99.90;;;;;;4885324;29;20067;-77
2021/03/28 12:57:52;;;;;;;10.88;9.00;;;12.00;99.90;;;;;;4851959;29;20081;-76
2021/03/28 13:00:40;;;;;;;9.15;8.35;;;11.90;99.90;;;;;;4875498;29;20063;-76
2021/03/28 13:03:28;;;;;;;10.38;9.32;;;11.80;99.90;;;;;;4898514;29;20491;-76
2021/03/28 13:06:31;;;;;;;9.65;8.75;;;11.90;99.90;;;;;;4871962;29;20056;-76
2021/03/28 13:09:10;;;;;;;11.02;7.97;;;11.80;99.90;;;;;;4883649;29;20479;-76
2021/03/28 13:11:49;;;;;;;12.50;9.50;;;11.80;99.90;;;;;;4907986;29;20076;-78
2021/03/28 13:14:28;;;;;;;9.25;8.38;;;11.90;99.90;;;;;;4874682;29;20419;-76
2021/03/28 13:17:00;;;;;;;11.82;10.25;;;11.90;99.90;;;;;;4876808;29;20064;-77
2021/03/28 13:19:33;;;;;;;10.18;9.23;;;11.90;99.90;;;;;;4873055;29;20045;-77
2021/03/28 13:22:23;;;;;;;10.07;9.18;;;11.90;99.90;;;;;;4891917;29;20080;-77
2021/03/28 13:24:50;;;;;;;12.45;9.52;;;11.80;99.90;;;;;;4877774;29;20058;-77
2021/03/28 13:27:20;;;;;;;9.98;8.90;;;11.80;99.90;;;;;;4860368;29;20119;-77
2021/03/28 13:29:54;;;;;;;9.52;8.65;;;11.80;99.90;;;;;;4857299;29;20052;-76
2021/03/28 13:32:28;;;;;;;11.20;9.98;;;11.80;99.90;;;;;;4867485;29;20543;-78
2021/03/28 13:35:04;;;;;;;10.95;9.82;;;11.90;99.90;;;;;;4880732;29;20519;-76
2021/03/28 13:37:34;;;;;;;9.45;8.55;;;12.00;99.90;;;;;;4858208;29;20057;-77
2021/03/28 13:40:18;;;;;;;10.13;8.57;;;12.10;99.90;;;;;;4868489;29;20531;-77
2021/03/28 13:42:50;;;;;;;10.35;9.55;;;12.10;99.90;;;;;;4882477;29;20105;-77
2021/03/28 13:45:16;;;;;;;11.55;10.23;;;12.30;99.90;;;;;;4881114;29;20063;-76
2021/03/28 13:47:49;;;;;;;14.55;8.38;;;12.40;99.90;;;;;;4888366;29;20052;-77
2021/03/28 13:50:31;;;;;;;8.90;8.20;;;12.40;99.90;;;;;;4866937;29;20049;-76
2021/03/28 13:53:00;;;;;;;9.35;8.55;;;12.40;99.90;;;;;;4891264;29;20068;-76
2021/03/28 13:55:32;;;;;;;9.57;8.57;;;12.50;99.90;;;;;;4890908;29;20048;-77
2021/03/28 13:58:29;;;;;;;10.70;8.43;;;12.70;99.90;;;;;;4909299;29;20048;-76
2021/03/28 14:01:20;;;;;;;15.35;7.63;;;12.60;99.90;;;;;;4907565;29;20052;-77
2021/03/28 14:03:49;;;;;;;8.45;7.85;;;12.50;99.90;;;;;;4863302;29;20471;-76
2021/03/28 14:06:27;;;;;;;9.25;8.00;;;12.50;99.90;;;;;;4883867;29;20060;-77
2021/03/28 14:09:19;;;;;;;9.82;8.80;;;12.40;99.90;;;;;;4890940;29;20052;-76
2021/03/28 14:11:45;;;;;;;7.95;7.05;;;12.40;99.90;;;;;;4877150;29;20057;-78
2021/03/28 14:14:33;;;;;;;8.93;7.40;;;12.30;99.90;;;;;;4887215;29;20048;-78
2021/03/28 14:17:18;;;;;;;10.18;9.18;;;12.30;99.90;;;;;;4886657;29;20104;-77
2021/03/28 14:19:46;;;;;;;10.20;9.20;;;12.40;99.90;;;;;;4889767;29;20053;-76